createdAt,value
2022-10-22T00:01:40.318Z,16.23
2022-10-22T00:05:21.734Z,13.35
2022-10-22T00:07:12.376Z,23.65
2022-10-22T00:09:02.726Z,16.17
2022-10-22T00:10:52.968Z,14.15
2022-10-22T00:12:43.529Z,18.48
2022-10-22T00:14:34.161Z,16.50
2022-10-22T00:16:25.173Z,16.65
2022-10-22T00:18:16.968Z,25.05
2022-10-22T00:20:08.497Z,16.98
2022-10-22T00:21:59.103Z,17.88
2022-10-22T00:23:49.712Z,14.77
2022-10-22T00:25:40.099Z,16.55
2022-10-22T00:27:30.445Z,12.43
2022-10-22T00:29:20.676Z,14.40
2022-10-22T00:31:11.149Z,12.90
2022-10-22T00:33:01.632Z,16.52
2022-10-22T00:34:53.533Z,19.52
2022-10-22T00:36:44.705Z,19.55
2022-10-22T00:38:35.087Z,17.08
2022-10-22T00:40:25.610Z,15.52
2022-10-22T00:42:20.120Z,18.70
2022-10-22T00:44:43.702Z,12.82
2022-10-22T00:46:34.362Z,16.85
2022-10-22T00:48:28.100Z,15.25
2022-10-22T00:50:25.021Z,19.17
2022-10-22T00:52:15.330Z,17.65
2022-10-22T00:54:07.458Z,18.13
2022-10-22T00:55:58.500Z,14.15
2022-10-22T00:57:49.291Z,18.60
2022-10-22T00:59:39.939Z,17.35
2022-10-22T01:01:32.101Z,12.45
2022-10-22T01:03:22.857Z,21.02
2022-10-22T01:05:13.432Z,21.38
2022-10-22T01:07:05.256Z,21.42
2022-10-22T01:09:06.702Z,16.58
2022-10-22T01:11:06.821Z,16.63
2022-10-22T01:13:05.690Z,16.55
2022-10-22T01:15:05.934Z,19.15
2022-10-22T01:17:02.303Z,15.20
2022-10-22T01:18:57.843Z,17.02
2022-10-22T01:20:58.708Z,17.15
2022-10-22T01:22:58.571Z,21.38
2022-10-22T01:24:59.611Z,15.02
2022-10-22T01:26:59.785Z,15.38
2022-10-22T01:28:58.785Z,12.00
2022-10-22T01:30:50.904Z,19.45
2022-10-22T01:32:46.186Z,17.35
2022-10-22T01:34:38.385Z,14.05
2022-10-22T01:36:29.978Z,21.15
2022-10-22T01:38:22.620Z,16.65
2022-10-22T01:40:14.936Z,20.80
2022-10-22T01:42:05.496Z,16.67
2022-10-22T01:43:57.443Z,14.50
2022-10-22T01:45:51.185Z,18.95
2022-10-22T01:47:49.796Z,16.63
2022-10-22T01:49:53.305Z,20.17
2022-10-22T01:51:52.183Z,17.02
2022-10-22T01:53:50.495Z,22.98
2022-10-22T01:55:47.573Z,14.95
2022-10-22T01:57:44.143Z,20.17
2022-10-22T01:59:42.359Z,16.20
2022-10-22T02:01:41.428Z,13.82
2022-10-22T02:03:36.630Z,26.23
2022-10-22T02:05:30.401Z,19.88
2022-10-22T02:07:24.100Z,17.25
2022-10-22T02:09:15.893Z,13.32
2022-10-22T02:11:06.983Z,18.67
2022-10-22T02:12:59.087Z,18.30
2022-10-22T02:14:51.057Z,14.75
2022-10-22T02:18:38.770Z,21.20
2022-10-22T02:20:32.738Z,18.13
2022-10-22T02:22:24.247Z,24.80
2022-10-22T02:24:15.021Z,18.00
2022-10-22T02:26:09.700Z,13.75
2022-10-22T02:28:04.699Z,12.23
2022-10-22T02:30:03.648Z,14.02
2022-10-22T02:31:56.335Z,13.70
2022-10-22T02:33:48.216Z,10.60
2022-10-22T02:35:41.001Z,18.25
2022-10-22T02:37:32.083Z,14.80
2022-10-22T02:39:23.419Z,10.38
2022-10-22T02:41:14.454Z,17.98
2022-10-22T02:43:05.807Z,15.47
2022-10-22T02:44:57.672Z,17.38
2022-10-22T02:46:48.768Z,23.35
2022-10-22T02:48:39.074Z,17.77
2022-10-22T02:50:29.411Z,21.08
2022-10-22T02:52:19.839Z,12.55
2022-10-22T02:54:10.936Z,17.70
2022-10-22T02:56:01.364Z,15.23
2022-10-22T02:57:51.740Z,22.08
2022-10-22T02:59:42.585Z,17.95
2022-10-22T03:01:34.968Z,22.73
2022-10-22T03:03:25.269Z,18.00
2022-10-22T03:05:15.975Z,18.73
2022-10-22T03:07:06.510Z,17.23
2022-10-22T03:08:56.918Z,15.80
2022-10-22T03:10:47.572Z,17.52
2022-10-22T03:12:38.832Z,16.67
2022-10-22T03:14:29.500Z,14.05
2022-10-22T03:16:20.124Z,23.08
2022-10-22T03:18:12.162Z,19.83
2022-10-22T03:20:02.720Z,22.92
2022-10-22T03:21:55.463Z,17.75
2022-10-22T03:25:36.071Z,13.10
2022-10-22T03:27:28.160Z,14.32
2022-10-22T03:29:19.006Z,14.93
2022-10-22T03:31:09.392Z,18.92
2022-10-22T03:33:00.097Z,17.60
2022-10-22T03:34:51.889Z,17.45
2022-10-22T03:36:42.503Z,11.88
2022-10-22T03:38:32.949Z,14.40
2022-10-22T03:40:23.304Z,22.13
2022-10-22T03:42:13.678Z,15.43
2022-10-22T03:44:04.917Z,16.92
2022-10-22T03:45:55.367Z,18.95
2022-10-22T03:47:46.315Z,21.65
2022-10-22T03:49:36.557Z,14.80
2022-10-22T03:51:28.598Z,25.63
2022-10-22T03:53:18.990Z,15.93
2022-10-22T03:55:09.679Z,16.58
2022-10-22T03:57:00.178Z,19.30
2022-10-22T03:58:51.096Z,18.33
2022-10-22T04:00:41.855Z,15.30
2022-10-22T04:02:32.570Z,15.60
2022-10-22T04:04:23.153Z,21.52
2022-10-22T04:06:13.942Z,21.33
2022-10-22T04:08:06.047Z,22.58
2022-10-22T04:09:56.679Z,15.25
2022-10-22T04:11:47.110Z,14.93
2022-10-22T04:13:38.153Z,12.48
2022-10-22T04:15:28.902Z,13.13
2022-10-22T04:17:19.230Z,29.27
2022-10-22T04:19:09.737Z,20.30
2022-10-22T04:21:00.347Z,15.35
2022-10-22T04:22:50.642Z,15.88
2022-10-22T04:24:42.273Z,18.83
2022-10-22T04:26:32.751Z,12.18
2022-10-22T04:28:23.195Z,18.50
2022-10-22T04:30:14.112Z,22.95
2022-10-22T04:32:04.711Z,13.20
2022-10-22T04:33:57.228Z,20.35
2022-10-22T04:35:48.117Z,15.98
2022-10-22T04:37:39.149Z,13.40
2022-10-22T04:39:30.289Z,22.70
2022-10-22T04:41:23.912Z,21.15
2022-10-22T04:43:14.290Z,13.70
2022-10-22T04:45:05.109Z,14.93
2022-10-22T04:46:55.536Z,19.92
2022-10-22T04:48:46.659Z,23.38
2022-10-22T04:50:37.205Z,18.45
2022-10-22T04:52:27.884Z,18.67
2022-10-22T04:54:18.285Z,16.58
2022-10-22T04:56:10.671Z,15.38
2022-10-22T04:58:02.606Z,15.27
2022-10-22T04:59:52.868Z,19.75
2022-10-22T05:01:44.764Z,18.00
2022-10-22T05:03:35.054Z,14.00
2022-10-22T05:05:25.607Z,24.05
2022-10-22T05:07:16.052Z,18.02
2022-10-22T05:09:08.406Z,15.88
2022-10-22T05:12:49.440Z,21.25
2022-10-22T05:14:44.102Z,20.63
2022-10-22T05:16:36.226Z,25.38
2022-10-22T05:18:26.627Z,24.70
2022-10-22T05:20:17.492Z,21.70
2022-10-22T05:22:08.137Z,19.88
2022-10-22T05:23:58.757Z,20.42
2022-10-22T05:25:49.355Z,18.40
2022-10-22T05:27:40.034Z,25.95
2022-10-22T05:29:31.135Z,25.53
2022-10-22T05:31:22.690Z,21.25
2022-10-22T05:33:13.069Z,24.13
2022-10-22T05:35:03.393Z,15.20
2022-10-22T05:36:53.950Z,19.52
2022-10-22T05:38:44.241Z,16.50
2022-10-22T05:40:34.772Z,18.05
2022-10-22T05:42:25.201Z,19.95
2022-10-22T05:44:15.532Z,19.85
2022-10-22T05:46:07.406Z,17.17
2022-10-22T05:47:59.392Z,30.58
2022-10-22T05:49:50.254Z,18.33
2022-10-22T05:51:40.495Z,20.60
2022-10-22T05:53:31.312Z,22.92
2022-10-22T05:55:22.293Z,14.85
2022-10-22T05:57:12.455Z,17.83
2022-10-22T06:01:02.091Z,21.77
2022-10-22T06:02:52.930Z,18.77
2022-10-22T06:04:44.828Z,22.52
2022-10-22T06:06:36.964Z,19.67
2022-10-22T06:08:27.828Z,12.45
2022-10-22T06:10:20.147Z,16.65
2022-10-22T06:14:01.128Z,19.88
2022-10-22T06:15:51.717Z,21.85
2022-10-22T06:17:43.873Z,21.58
2022-10-22T06:19:34.419Z,15.95
2022-10-22T06:21:26.318Z,18.10
2022-10-22T06:23:16.986Z,15.75
2022-10-22T06:25:08.424Z,21.45
2022-10-22T06:26:59.521Z,18.60
2022-10-22T06:28:50.279Z,19.35
2022-10-22T06:30:43.037Z,15.80
2022-10-22T06:32:36.301Z,23.70
2022-10-22T06:34:26.834Z,18.13
2022-10-22T06:36:19.756Z,24.85
2022-10-22T06:38:11.425Z,19.58
2022-10-22T06:40:02.042Z,17.85
2022-10-22T06:41:52.459Z,20.50
2022-10-22T06:43:44.178Z,20.23
2022-10-22T06:45:34.650Z,20.10
2022-10-22T06:47:25.074Z,22.98
2022-10-22T06:49:16.111Z,17.13
2022-10-22T06:51:07.992Z,20.38
2022-10-22T06:52:59.010Z,14.45
2022-10-22T06:54:50.882Z,18.55
2022-10-22T06:56:41.903Z,17.80
2022-10-22T06:58:32.181Z,31.70
2022-10-22T07:00:23.230Z,14.52
2022-10-22T07:02:13.680Z,19.77
2022-10-22T07:04:04.927Z,17.15
2022-10-22T07:05:55.764Z,20.77
2022-10-22T07:07:46.333Z,22.42
2022-10-22T07:09:37.455Z,23.85
2022-10-22T07:11:32.874Z,17.33
2022-10-22T07:13:53.503Z,23.40
2022-10-22T07:15:58.113Z,23.02
2022-10-22T07:17:52.401Z,22.92
2022-10-22T07:19:49.695Z,22.10
2022-10-22T07:21:47.150Z,22.25
2022-10-22T07:27:48.643Z,20.95
2022-10-22T07:29:39.086Z,19.48
2022-10-22T07:31:29.307Z,24.95
2022-10-22T07:33:20.015Z,16.33
2022-10-22T07:35:10.450Z,12.02
2022-10-22T07:37:01.126Z,20.85
2022-10-22T07:38:54.820Z,23.35
2022-10-22T07:40:45.079Z,15.90
2022-10-22T07:42:35.470Z,35.90
2022-10-22T07:44:27.493Z,15.45
2022-10-22T07:46:17.993Z,18.73
2022-10-22T07:48:08.241Z,20.63
2022-10-22T07:49:58.588Z,23.10
2022-10-22T07:51:49.362Z,15.57
2022-10-22T07:53:39.961Z,16.17
2022-10-22T07:55:30.703Z,17.48
2022-10-22T07:57:20.990Z,20.95
2022-10-22T07:59:11.589Z,21.13
2022-10-22T08:01:03.749Z,27.67
2022-10-22T08:02:54.282Z,17.15
2022-10-22T08:04:44.665Z,25.02
2022-10-22T08:06:36.008Z,19.45
2022-10-22T08:08:30.475Z,20.83
2022-10-22T08:10:21.481Z,17.85
2022-10-22T08:12:12.051Z,15.35
2022-10-22T08:14:02.459Z,22.65
2022-10-22T08:15:56.453Z,16.65
2022-10-22T08:17:49.275Z,21.38
2022-10-22T08:19:41.174Z,24.27
2022-10-22T08:21:31.894Z,21.60
2022-10-22T08:23:25.978Z,18.48
2022-10-22T08:25:19.015Z,23.35
2022-10-22T08:27:10.774Z,20.08
2022-10-22T08:29:01.597Z,21.60
2022-10-22T08:30:51.921Z,22.60
2022-10-22T08:32:42.638Z,12.15
2022-10-22T08:34:34.685Z,19.90
2022-10-22T08:36:25.369Z,17.55
2022-10-22T08:38:15.611Z,18.48
2022-10-22T08:40:07.137Z,20.63
2022-10-22T08:42:05.048Z,19.67
2022-10-22T08:44:23.115Z,21.50
2022-10-22T08:46:36.691Z,19.85
2022-10-22T08:48:36.885Z,22.88
2022-10-22T08:50:33.270Z,20.25
2022-10-22T08:52:23.833Z,23.27
2022-10-22T08:54:23.778Z,22.15
2022-10-22T08:56:14.763Z,27.92
2022-10-22T08:58:11.595Z,19.95
2022-10-22T09:00:09.490Z,19.73
2022-10-22T09:02:00.406Z,22.88
2022-10-22T09:03:53.844Z,24.65
2022-10-22T09:07:45.373Z,17.73
2022-10-22T09:09:42.706Z,19.45
2022-10-22T09:11:36.800Z,19.45
2022-10-22T09:13:27.509Z,14.98
2022-10-22T09:15:19.191Z,21.15
2022-10-22T09:17:14.175Z,15.07
2022-10-22T09:19:13.463Z,18.13
2022-10-22T09:21:13.656Z,26.20
2022-10-22T09:23:15.396Z,23.33
2022-10-22T09:25:17.828Z,13.98
2022-10-22T09:27:12.327Z,18.45
2022-10-22T09:29:02.837Z,19.70
2022-10-22T09:30:53.433Z,18.10
2022-10-22T09:32:44.266Z,17.70
2022-10-22T09:34:35.049Z,18.10
2022-10-22T09:36:28.829Z,20.25
2022-10-22T09:38:21.668Z,20.92
2022-10-22T09:42:06.483Z,21.13
2022-10-22T09:43:57.738Z,21.00
2022-10-22T09:45:49.367Z,25.15
2022-10-22T09:47:57.313Z,20.42
2022-10-22T09:50:05.018Z,19.65
2022-10-22T09:52:02.957Z,23.25
2022-10-22T09:53:57.011Z,24.10
2022-10-22T09:55:52.698Z,21.27
2022-10-22T09:57:44.481Z,23.13
2022-10-22T09:59:38.291Z,19.65
2022-10-22T10:01:32.917Z,19.90
2022-10-22T10:03:25.304Z,24.00
2022-10-22T10:05:23.263Z,22.88
2022-10-22T10:07:18.110Z,29.25
2022-10-22T10:09:15.372Z,20.27
2022-10-22T10:11:10.989Z,17.55
2022-10-22T10:13:15.057Z,26.55
2022-10-22T10:15:17.461Z,23.10
2022-10-22T10:17:13.117Z,29.77
2022-10-22T10:19:28.564Z,26.60
2022-10-22T10:21:24.271Z,26.80
2022-10-22T10:23:25.260Z,24.38
2022-10-22T10:25:32.188Z,22.17
2022-10-22T10:27:30.799Z,30.20
2022-10-22T10:29:30.596Z,22.60
2022-10-22T10:31:31.630Z,30.17
2022-10-22T10:33:28.774Z,21.17
2022-10-22T10:35:23.791Z,18.40
2022-10-22T10:37:19.303Z,24.45
2022-10-22T10:39:14.943Z,23.77
2022-10-22T10:41:17.627Z,19.45
2022-10-22T10:43:13.319Z,30.85
2022-10-22T10:45:12.699Z,27.23
2022-10-22T10:47:13.463Z,23.52
2022-10-22T10:49:09.423Z,23.00
2022-10-22T10:51:08.668Z,19.02
2022-10-22T10:53:05.001Z,31.08
2022-10-22T10:55:03.723Z,24.85
2022-10-22T10:56:56.506Z,25.20
2022-10-22T10:58:55.360Z,31.50
2022-10-22T11:00:52.049Z,21.00
2022-10-22T11:03:10.261Z,25.70
2022-10-22T11:05:23.647Z,20.33
2022-10-22T11:07:33.818Z,23.58
2022-10-22T11:09:26.948Z,25.33
2022-10-22T11:13:17.202Z,25.70
2022-10-22T11:15:12.356Z,26.08
2022-10-22T11:17:06.079Z,24.60
2022-10-22T11:19:00.677Z,23.38
2022-10-22T11:21:16.080Z,31.10
2022-10-22T11:23:19.443Z,28.77
2022-10-22T11:25:16.452Z,22.70
2022-10-22T11:27:15.350Z,26.45
2022-10-22T11:29:09.767Z,28.45
2022-10-22T11:31:03.239Z,31.35
2022-10-22T11:32:56.065Z,29.27
2022-10-22T11:34:48.833Z,26.95
2022-10-22T11:36:39.720Z,23.55
2022-10-22T11:38:32.793Z,20.33
2022-10-22T11:40:33.215Z,27.38
2022-10-22T11:42:34.376Z,33.35
2022-10-22T11:44:24.941Z,34.67
2022-10-22T11:46:29.084Z,26.50
2022-10-22T11:48:19.950Z,31.17
2022-10-22T11:50:20.647Z,31.05
2022-10-22T11:52:26.977Z,21.95
2022-10-22T11:54:31.216Z,26.83
2022-10-22T11:56:23.431Z,18.60
2022-10-22T12:00:35.512Z,27.80
2022-10-22T12:02:43.246Z,28.13
2022-10-22T12:04:42.646Z,32.03
2022-10-22T12:07:00.998Z,19.67
2022-10-22T12:08:56.565Z,28.77
2022-10-22T12:11:14.934Z,29.73
2022-10-22T12:13:22.292Z,23.92
2022-10-22T12:15:24.357Z,33.50
2022-10-22T12:19:12.161Z,29.20
2022-10-22T12:21:02.681Z,19.58
2022-10-22T12:22:53.028Z,26.70
2022-10-22T12:24:46.268Z,21.92
2022-10-22T12:26:37.537Z,28.67
2022-10-22T12:28:28.310Z,32.88
2022-10-22T12:30:20.716Z,21.33
2022-10-22T12:34:04.405Z,24.38
2022-10-22T12:35:55.286Z,20.50
2022-10-22T12:37:49.840Z,31.02
2022-10-22T12:39:40.491Z,25.13
2022-10-22T12:41:32.046Z,24.02
2022-10-22T12:43:25.645Z,27.65
2022-10-22T12:45:15.793Z,26.17
2022-10-22T12:47:07.520Z,23.50
2022-10-22T12:49:00.873Z,32.70
2022-10-22T12:50:52.619Z,24.55
2022-10-22T12:52:42.995Z,17.95
2022-10-22T12:54:34.713Z,25.35
2022-10-22T12:56:27.730Z,22.52
2022-10-22T12:58:21.291Z,23.50
2022-10-22T13:00:23.475Z,18.77
2022-10-22T13:02:18.002Z,20.80
2022-10-22T13:04:21.168Z,23.58
2022-10-22T13:06:13.537Z,22.35
2022-10-22T13:09:59.215Z,20.55
2022-10-22T13:11:51.929Z,25.23
2022-10-22T13:13:43.637Z,25.90
2022-10-22T13:15:37.709Z,26.13
2022-10-22T13:17:39.740Z,22.92
2022-10-22T13:19:39.697Z,22.42
2022-10-22T13:21:33.900Z,31.23
2022-10-22T13:23:26.233Z,25.98
2022-10-22T13:25:23.839Z,28.98
2022-10-22T13:27:14.309Z,31.55
2022-10-22T13:29:10.973Z,23.13
2022-10-22T13:31:08.479Z,21.05
2022-10-22T13:33:00.554Z,25.40
2022-10-22T13:36:42.976Z,20.07
2022-10-22T13:38:33.456Z,21.63
2022-10-22T13:40:23.731Z,24.58
2022-10-22T13:42:14.398Z,18.17
2022-10-22T13:44:04.855Z,17.27
2022-10-22T13:45:58.181Z,26.95
2022-10-22T13:47:51.684Z,20.52
2022-10-22T13:49:42.324Z,21.67
2022-10-22T13:51:35.215Z,26.67
2022-10-22T13:53:28.059Z,19.33
2022-10-22T13:55:19.966Z,25.98
2022-10-22T13:57:10.685Z,20.63
2022-10-22T13:59:01.519Z,26.13
2022-10-22T14:00:54.139Z,23.92
2022-10-22T14:02:47.308Z,20.77
2022-10-22T14:04:39.976Z,29.80
2022-10-22T14:08:23.469Z,22.15
2022-10-22T14:10:16.675Z,18.90
2022-10-22T14:12:12.084Z,20.30
2022-10-22T14:14:02.680Z,23.33
2022-10-22T14:15:53.233Z,20.58
2022-10-22T14:17:45.498Z,26.95
2022-10-22T14:21:27.819Z,23.35
2022-10-22T14:23:20.910Z,27.98
2022-10-22T14:25:15.568Z,24.23
2022-10-22T14:27:06.231Z,23.67
2022-10-22T14:29:12.357Z,18.38
2022-10-22T14:31:02.871Z,27.13
2022-10-22T14:32:53.321Z,27.58
2022-10-22T14:34:43.904Z,21.70
2022-10-22T14:36:34.297Z,25.50
2022-10-22T14:38:24.955Z,22.85
2022-10-22T14:40:19.198Z,25.58
2022-10-22T14:42:11.105Z,16.83
2022-10-22T14:44:01.597Z,26.15
2022-10-22T14:45:52.442Z,25.73
2022-10-22T14:47:43.404Z,28.50
2022-10-22T14:49:33.851Z,19.67
2022-10-22T14:51:24.528Z,26.13
2022-10-22T14:53:15.694Z,26.70
2022-10-22T14:55:07.081Z,28.00
2022-10-22T14:56:59.254Z,22.58
2022-10-22T14:58:49.838Z,26.45
2022-10-22T15:00:41.111Z,20.58
2022-10-22T15:02:31.420Z,24.48
2022-10-22T15:04:21.973Z,28.30
2022-10-22T15:06:13.596Z,23.00
2022-10-22T15:08:04.566Z,30.08
2022-10-22T15:09:55.204Z,28.90
2022-10-22T15:11:45.576Z,27.08
2022-10-22T15:13:37.538Z,17.52
2022-10-22T15:15:31.716Z,25.58
2022-10-22T15:17:25.861Z,26.65
2022-10-22T15:19:16.238Z,29.17
2022-10-22T15:21:08.447Z,21.00
2022-10-22T15:22:58.801Z,25.50
2022-10-22T15:24:49.573Z,19.77
2022-10-22T15:26:40.068Z,22.30
2022-10-22T15:28:30.524Z,27.17
2022-10-22T15:30:22.257Z,29.95
2022-10-22T15:32:12.810Z,22.50
2022-10-22T15:34:03.275Z,26.77
2022-10-22T15:35:53.768Z,22.55
2022-10-22T15:37:44.141Z,22.55
2022-10-22T15:39:34.965Z,24.77
2022-10-22T15:41:26.649Z,24.73
2022-10-22T15:43:16.931Z,27.55
2022-10-22T15:45:08.056Z,26.08
2022-10-22T15:46:59.940Z,24.50
2022-10-22T15:48:52.819Z,21.92
2022-10-22T15:50:43.490Z,23.10
2022-10-22T15:52:35.073Z,17.90
2022-10-22T15:54:27.420Z,23.83
2022-10-22T15:56:18.216Z,25.70
2022-10-22T15:58:08.727Z,25.48
2022-10-22T15:59:59.367Z,24.23
2022-10-22T16:01:49.784Z,22.38
2022-10-22T16:03:41.914Z,27.27
2022-10-22T16:05:32.504Z,30.65
2022-10-22T16:07:24.751Z,26.65
2022-10-22T16:09:17.133Z,23.15
2022-10-22T16:11:08.036Z,17.63
2022-10-22T16:12:58.609Z,17.92
2022-10-22T16:14:50.083Z,22.50
2022-10-22T16:16:43.247Z,17.85
2022-10-22T16:18:33.696Z,19.10
2022-10-22T16:20:25.893Z,31.98
2022-10-22T16:22:16.609Z,25.95
2022-10-22T16:24:12.547Z,25.83
2022-10-22T16:26:03.993Z,22.15
2022-10-22T16:27:54.573Z,26.98
2022-10-22T16:29:45.020Z,20.45
2022-10-22T16:31:35.394Z,23.40
2022-10-22T16:33:25.817Z,15.82
2022-10-22T16:35:16.457Z,22.30
2022-10-22T16:37:08.565Z,20.08
2022-10-22T16:40:49.757Z,24.90
2022-10-22T16:42:40.183Z,24.00
2022-10-22T16:44:30.560Z,27.45
2022-10-22T16:46:22.222Z,22.42
2022-10-22T16:48:12.532Z,19.05
2022-10-22T16:50:02.896Z,32.90
2022-10-22T16:51:53.340Z,27.98
2022-10-22T16:53:45.468Z,17.23
2022-10-22T16:55:36.317Z,21.67
2022-10-22T16:57:28.137Z,25.38
2022-10-22T16:59:18.815Z,15.70
2022-10-22T17:01:10.217Z,18.90
2022-10-22T17:03:00.740Z,23.35
2022-10-22T17:04:51.260Z,24.50
2022-10-22T17:06:41.944Z,19.58
2022-10-22T17:08:35.014Z,25.23
2022-10-22T17:12:16.762Z,25.90
2022-10-22T17:14:07.555Z,28.98
2022-10-22T17:16:01.515Z,20.75
2022-10-22T17:17:51.887Z,24.02
2022-10-22T17:19:42.121Z,27.67
2022-10-22T17:21:32.545Z,23.75
2022-10-22T17:23:23.136Z,23.88
2022-10-22T17:25:15.259Z,25.25
2022-10-22T17:27:07.316Z,21.70
2022-10-22T17:28:58.413Z,27.40
2022-10-22T17:30:48.732Z,34.90
2022-10-22T17:32:39.768Z,26.23
2022-10-22T17:34:30.237Z,32.45
2022-10-22T17:36:21.944Z,21.30
2022-10-22T17:38:13.202Z,26.95
2022-10-22T17:40:04.258Z,24.60
2022-10-22T17:41:54.792Z,28.92
2022-10-22T17:43:47.234Z,29.15
2022-10-22T17:47:28.254Z,24.83
2022-10-22T17:49:19.960Z,28.60
2022-10-22T17:51:14.110Z,27.83
2022-10-22T17:53:04.630Z,26.45
2022-10-22T17:54:55.067Z,31.58
2022-10-22T17:56:45.654Z,27.13
2022-10-22T17:58:36.284Z,29.08
2022-10-22T18:00:28.611Z,31.95
2022-10-22T18:02:19.331Z,31.25
2022-10-22T18:04:13.285Z,28.38
2022-10-22T18:06:08.194Z,42.00
2022-10-22T18:07:58.834Z,35.88
2022-10-22T18:09:49.545Z,32.47
2022-10-22T18:11:40.636Z,36.78
2022-10-22T18:13:31.444Z,39.67
2022-10-22T18:15:21.776Z,37.72
2022-10-22T18:19:05.552Z,41.50
2022-10-22T18:20:56.367Z,37.95
2022-10-22T18:22:46.973Z,41.35
2022-10-22T18:24:37.234Z,43.05
2022-10-22T18:26:27.916Z,41.55
2022-10-22T18:28:20.713Z,41.25
2022-10-22T18:30:11.792Z,44.10
2022-10-22T18:32:02.059Z,35.13
2022-10-22T18:35:50.589Z,44.55
2022-10-22T18:37:41.283Z,37.10
2022-10-22T18:39:32.044Z,38.25
2022-10-22T18:41:23.514Z,39.88
2022-10-22T18:43:14.698Z,28.90
2022-10-22T18:45:06.414Z,30.00
2022-10-22T18:46:56.825Z,38.22
2022-10-22T18:48:47.742Z,31.02
2022-10-22T18:50:39.872Z,31.58
2022-10-22T18:52:30.817Z,31.98
2022-10-22T18:54:23.671Z,28.15
2022-10-22T18:56:14.798Z,24.80
2022-10-22T18:58:05.336Z,30.83
2022-10-22T18:59:58.648Z,30.52
2022-10-22T19:01:51.732Z,25.85
2022-10-22T19:05:33.029Z,24.05
2022-10-22T19:07:24.666Z,22.60
2022-10-22T19:09:15.955Z,27.52
2022-10-22T19:11:09.828Z,25.15
2022-10-22T19:13:00.183Z,29.13
2022-10-22T19:14:50.446Z,26.17
2022-10-22T19:16:41.120Z,30.73
2022-10-22T19:18:32.137Z,23.08
2022-10-22T19:20:22.881Z,31.85
2022-10-22T19:22:13.398Z,24.80
2022-10-22T19:24:06.277Z,27.05
2022-10-22T19:26:00.952Z,28.63
2022-10-22T19:27:51.473Z,24.52
2022-10-22T19:29:44.395Z,25.90
2022-10-22T19:31:34.805Z,20.88
2022-10-22T19:33:25.931Z,29.00
2022-10-22T19:35:16.320Z,31.33
2022-10-22T19:37:07.801Z,25.58
2022-10-22T19:38:58.965Z,25.13
2022-10-22T19:40:50.527Z,21.63
2022-10-22T19:44:32.149Z,28.73
2022-10-22T19:46:23.304Z,26.40
2022-10-22T19:48:14.271Z,27.95
2022-10-22T19:50:05.607Z,28.00
2022-10-22T19:51:56.409Z,26.17
2022-10-22T19:53:47.642Z,23.63
2022-10-22T19:55:42.788Z,25.73
2022-10-22T19:57:34.733Z,33.05
2022-10-22T19:59:27.375Z,33.35
2022-10-22T20:01:20.872Z,29.95
2022-10-22T20:03:13.183Z,27.58
2022-10-22T20:06:54.327Z,25.30
2022-10-22T20:08:45.432Z,25.08
2022-10-22T20:10:36.547Z,19.47
2022-10-22T20:12:27.465Z,30.02
2022-10-22T20:14:19.523Z,23.75
2022-10-22T20:16:10.195Z,31.25
2022-10-22T20:18:00.755Z,33.70
2022-10-22T20:19:53.599Z,38.75
2022-10-22T20:21:44.488Z,39.30
2022-10-22T20:23:35.472Z,45.50
2022-10-22T20:25:26.240Z,42.03
2022-10-22T20:27:17.232Z,34.85
2022-10-22T20:29:08.025Z,38.25
2022-10-22T20:31:00.263Z,42.85
2022-10-22T20:32:50.598Z,28.05
2022-10-22T20:34:40.801Z,36.78
2022-10-22T20:36:32.115Z,32.83
2022-10-22T20:38:23.898Z,32.88
2022-10-22T20:40:15.653Z,26.95
2022-10-22T20:42:06.172Z,36.72
2022-10-22T20:43:56.767Z,31.98
2022-10-22T20:45:47.526Z,30.67
2022-10-22T20:47:51.072Z,27.83
2022-10-22T20:49:41.993Z,28.42
2022-10-22T20:51:32.784Z,29.52
2022-10-22T20:53:23.525Z,29.20
2022-10-22T20:55:17.287Z,29.60
2022-10-22T20:57:07.667Z,32.10
2022-10-22T20:58:59.713Z,24.05
2022-10-22T21:00:50.367Z,31.95
2022-10-22T21:02:42.509Z,30.50
2022-10-22T21:04:32.844Z,26.40
2022-10-22T21:06:23.461Z,24.27
2022-10-22T21:08:14.024Z,24.17
2022-10-22T21:10:05.393Z,23.85
2022-10-22T21:11:56.050Z,25.40
2022-10-22T21:13:47.602Z,23.88
2022-10-22T21:15:38.141Z,30.25
2022-10-22T21:17:28.346Z,26.35
2022-10-22T21:19:20.663Z,24.35
2022-10-22T21:21:12.359Z,23.48
2022-10-22T21:23:03.356Z,30.55
2022-10-22T21:24:53.600Z,25.27
2022-10-22T21:26:44.037Z,22.75
2022-10-22T21:28:35.100Z,26.08
2022-10-22T21:30:25.889Z,23.42
2022-10-22T21:32:16.351Z,24.38
2022-10-22T21:34:07.096Z,30.52
2022-10-22T21:35:58.777Z,28.98
2022-10-22T21:37:49.328Z,23.17
2022-10-22T21:39:42.056Z,30.42
2022-10-22T21:41:33.470Z,24.75
2022-10-22T21:43:24.174Z,29.50
2022-10-22T21:45:18.711Z,25.70
2022-10-22T21:47:11.796Z,25.17
2022-10-22T21:49:05.286Z,22.60
2022-10-22T21:50:56.231Z,29.88
2022-10-22T21:52:48.277Z,27.65
2022-10-22T21:54:38.866Z,27.30
2022-10-22T21:56:30.952Z,25.95
2022-10-22T21:58:21.353Z,30.67
2022-10-22T22:00:13.341Z,40.03
2022-10-22T22:02:05.787Z,31.13
2022-10-22T22:03:56.836Z,26.27
2022-10-22T22:05:47.439Z,24.33
2022-10-22T22:07:37.913Z,26.40
2022-10-22T22:09:32.044Z,28.15
2022-10-22T22:11:25.587Z,31.20
2022-10-22T22:13:15.953Z,25.60
2022-10-22T22:15:08.298Z,28.65
2022-10-22T22:17:00.119Z,31.48
2022-10-22T22:18:50.482Z,26.38
2022-10-22T22:20:40.993Z,30.67
2022-10-22T22:22:31.553Z,25.77
2022-10-22T22:24:22.254Z,25.65
2022-10-22T22:26:15.222Z,33.13
2022-10-22T22:28:05.818Z,28.00
2022-10-22T22:29:56.508Z,26.40
2022-10-22T22:31:47.172Z,31.88
2022-10-22T22:33:37.720Z,27.30
2022-10-22T22:35:28.289Z,34.22
2022-10-22T22:37:19.161Z,28.98
2022-10-22T22:39:12.079Z,25.27
2022-10-22T22:41:02.838Z,29.95
2022-10-22T22:42:54.749Z,28.73
2022-10-22T22:44:45.343Z,28.23
2022-10-22T22:46:36.278Z,34.92
2022-10-22T22:48:27.001Z,25.90
2022-10-22T22:50:17.412Z,28.95
2022-10-22T22:52:09.223Z,25.08
2022-10-22T22:53:59.930Z,27.43
2022-10-22T22:55:50.598Z,24.75
2022-10-22T22:57:40.837Z,29.23
2022-10-22T22:59:32.496Z,27.73
2022-10-22T23:01:24.790Z,29.77
2022-10-22T23:03:15.434Z,37.47
2022-10-22T23:05:06.913Z,29.92
2022-10-22T23:06:57.533Z,28.07
2022-10-22T23:08:50.026Z,31.65
2022-10-22T23:10:40.516Z,30.60
2022-10-22T23:12:31.025Z,37.22
2022-10-22T23:14:21.350Z,30.20
2022-10-22T23:16:15.487Z,34.38
2022-10-22T23:18:06.029Z,34.15
2022-10-22T23:19:56.550Z,31.80
2022-10-22T23:21:48.828Z,32.40
2022-10-22T23:25:32.262Z,32.55
2022-10-22T23:27:22.478Z,31.30
2022-10-22T23:29:14.584Z,34.20
2022-10-22T23:31:05.412Z,33.05
2022-10-22T23:32:57.612Z,28.27
2022-10-22T23:36:38.766Z,34.92
2022-10-22T23:38:29.639Z,38.00
2022-10-22T23:40:19.817Z,34.55
2022-10-22T23:42:10.537Z,25.63
2022-10-22T23:44:01.224Z,29.20
2022-10-22T23:45:52.251Z,31.77
2022-10-22T23:47:42.690Z,27.13
2022-10-22T23:49:34.646Z,34.75
2022-10-22T23:51:25.237Z,29.05
2022-10-22T23:53:15.935Z,29.58
2022-10-22T23:55:07.321Z,25.58
2022-10-22T23:56:57.760Z,33.60
2022-10-22T23:58:49.267Z,26.48
